Doon, Iowa
Current Conditions -  °F | °C
As of 3:35 AM on Saturday 20 Dec 2014 (Local Time) from KSHL Reporting Station
Haze Haze  
Wind Chill: 21°   Ceiling: 300
Heat Index: 30°   Visibility: 2mi
Dew Point: 30°   Wind: 12mph
Humidity: 100%   Direction: 160°SSE
Pressure: 30.08"   Gusts: NA
Location:  43.28°N, 96.23°W
Report Text: KSHL 200935Z AUTO 16010KT 2SM BR OVC003 M01/M01 A3008 RMK AO2
Loading
Personal Weather Stations






























Interactive Weather Map New forecast layout! Learn more

10-Day Weather Forecast

Advertisements
Track Severe Weather on mobile